sensor_id;sensor_type;location;lat;lon;timestamp;pressure;altitude;pressure_sealevel;temperature;humidity
39891;BME280;25564;53.312;9.790;2023-03-15T00:00:39;100034.00;;;1.04;96.12
39891;BME280;25564;53.312;9.790;2023-03-15T00:03:13;100022.66;;;0.99;96.64
39891;BME280;25564;53.312;9.790;2023-03-15T00:05:46;100034.00;;;1.01;96.33
39891;BME280;25564;53.312;9.790;2023-03-15T00:08:18;100027.88;;;1.01;96.47
39891;BME280;25564;53.312;9.790;2023-03-15T00:10:51;100013.88;;;0.92;96.32
39891;BME280;25564;53.312;9.790;2023-03-15T00:13:23;100035.72;;;1.01;96.42
39891;BME280;25564;53.312;9.790;2023-03-15T00:15:59;100039.97;;;0.91;96.47
39891;BME280;25564;53.312;9.790;2023-03-15T00:18:31;100041.59;;;0.80;96.08
39891;BME280;25564;53.312;9.790;2023-03-15T00:21:02;100028.44;;;0.69;96.79
39891;BME280;25564;53.312;9.790;2023-03-15T00:23:34;100047.69;;;0.79;96.84
39891;BME280;25564;53.312;9.790;2023-03-15T00:26:05;100031.00;;;0.66;96.47
39891;BME280;25564;53.312;9.790;2023-03-15T00:28:37;100030.16;;;0.69;96.27
39891;BME280;25564;53.312;9.790;2023-03-15T00:31:14;100050.38;;;0.86;96.78
39891;BME280;25564;53.312;9.790;2023-03-15T00:33:46;100061.72;;;0.90;96.73
39891;BME280;25564;53.312;9.790;2023-03-15T00:36:18;100053.91;;;0.91;97.07
39891;BME280;25564;53.312;9.790;2023-03-15T00:38:54;100044.34;;;0.92;96.75
39891;BME280;25564;53.312;9.790;2023-03-15T00:41:26;100066.25;;;1.08;97.00
39891;BME280;25564;53.312;9.790;2023-03-15T00:43:57;100043.63;;;1.11;96.97
39891;BME280;25564;53.312;9.790;2023-03-15T00:46:29;100062.94;;;1.27;97.22
39891;BME280;25564;53.312;9.790;2023-03-15T00:49:00;100037.66;;;1.24;97.42
39891;BME280;25564;53.312;9.790;2023-03-15T00:51:31;100079.66;;;1.43;97.69
39891;BME280;25564;53.312;9.790;2023-03-15T00:54:03;100063.06;;;1.39;97.53
39891;BME280;25564;53.312;9.790;2023-03-15T00:56:35;100069.22;;;1.46;97.04
39891;BME280;25564;53.312;9.790;2023-03-15T00:59:06;100083.19;;;1.48;97.55
39891;BME280;25564;53.312;9.790;2023-03-15T01:01:38;100032.41;;;1.21;97.76
39891;BME280;25564;53.312;9.790;2023-03-15T01:04:14;100083.22;;;1.51;97.86
39891;BME280;25564;53.312;9.790;2023-03-15T01:06:45;100081.47;;;1.53;97.69
39891;BME280;25564;53.312;9.790;2023-03-15T01:09:17;100078.81;;;1.47;97.60
39891;BME280;25564;53.312;9.790;2023-03-15T01:11:49;100081.47;;;1.50;97.51
39891;BME280;25564;53.312;9.790;2023-03-15T01:14:20;100097.28;;;1.65;97.81
39891;BME280;25564;53.312;9.790;2023-03-15T01:16:51;100099.94;;;1.70;98.07
39891;BME280;25564;53.312;9.790;2023-03-15T01:19:23;100077.19;;;1.61;97.81
39891;BME280;25564;53.312;9.790;2023-03-15T01:21:54;100078.91;;;1.59;98.20
39891;BME280;25564;53.312;9.790;2023-03-15T01:24:26;100068.44;;;1.56;97.96
39891;BME280;25564;53.312;9.790;2023-03-15T01:26:57;100102.59;;;1.77;98.08
39891;BME280;25564;53.312;9.790;2023-03-15T01:29:28;100110.47;;;1.80;97.91
39891;BME280;25564;53.312;9.790;2023-03-15T01:32:00;100120.06;;;1.80;98.03
39891;BME280;25564;53.312;9.790;2023-03-15T01:34:31;100102.56;;;1.71;97.64
39891;BME280;25564;53.312;9.790;2023-03-15T01:37:02;100113.94;;;1.78;97.87
39891;BME280;25564;53.312;9.790;2023-03-15T01:39:34;100114.78;;;1.74;97.54
39891;BME280;25564;53.312;9.790;2023-03-15T01:42:05;100083.25;;;1.54;98.14
39891;BME280;25564;53.312;9.790;2023-03-15T01:44:57;100097.28;;;1.65;98.01
39891;BME280;25564;53.312;9.790;2023-03-15T01:47:30;100085.03;;;1.61;98.00
39891;BME280;25564;53.312;9.790;2023-03-15T01:50:08;100097.38;;;1.76;97.94
39891;BME280;25564;53.312;9.790;2023-03-15T01:52:41;100075.44;;;1.58;97.38
39891;BME280;25564;53.312;9.790;2023-03-15T01:55:15;100111.25;;;1.67;97.49
39891;BME280;25564;53.312;9.790;2023-03-15T01:57:50;100117.28;;;1.61;97.80
39891;BME280;25564;53.312;9.790;2023-03-15T02:00:26;100104.91;;;1.42;97.69
39891;BME280;25564;53.312;9.790;2023-03-15T02:02:59;100138.16;;;1.57;97.91
39891;BME280;25564;53.312;9.790;2023-03-15T02:05:34;100133.84;;;1.59;97.85
39891;BME280;25564;53.312;9.790;2023-03-15T02:08:08;100136.44;;;1.59;98.37
39891;BME280;25564;53.312;9.790;2023-03-15T02:10:42;100139.97;;;1.62;98.13
39891;BME280;25564;53.312;9.790;2023-03-15T02:13:17;100149.59;;;1.67;98.87
39891;BME280;25564;53.312;9.790;2023-03-15T02:15:51;100146.16;;;1.72;98.18
39891;BME280;25564;53.312;9.790;2023-03-15T02:18:23;100148.81;;;1.77;97.66
39891;BME280;25564;53.312;9.790;2023-03-15T02:21:09;100142.75;;;1.79;98.05
39891;BME280;25564;53.312;9.790;2023-03-15T02:23:47;100141.84;;;1.79;98.36
39891;BME280;25564;53.312;9.790;2023-03-15T02:28:58;100133.91;;;1.68;98.49
39891;BME280;25564;53.312;9.790;2023-03-15T02:31:31;100143.59;;;1.78;98.13
39891;BME280;25564;53.312;9.790;2023-03-15T02:34:08;100119.91;;;1.60;97.83
39891;BME280;25564;53.312;9.790;2023-03-15T02:36:39;100145.16;;;1.58;97.94
39891;BME280;25564;53.312;9.790;2023-03-15T02:39:16;100156.44;;;1.54;97.89
39891;BME280;25564;53.312;9.790;2023-03-15T02:41:58;100158.06;;;1.41;98.20
39891;BME280;25564;53.312;9.790;2023-03-15T02:44:30;100164.97;;;1.35;97.92
39891;BME280;25564;53.312;9.790;2023-03-15T02:47:13;100146.53;;;1.22;98.41
39891;BME280;25564;53.312;9.790;2023-03-15T02:49:49;100167.53;;;1.31;98.23
39891;BME280;25564;53.312;9.790;2023-03-15T02:52:21;100153.53;;;1.25;98.69
39891;BME280;25564;53.312;9.790;2023-03-15T02:54:53;100160.56;;;1.30;98.63
39891;BME280;25564;53.312;9.790;2023-03-15T02:57:24;100175.47;;;1.41;98.41
39891;BME280;25564;53.312;9.790;2023-03-15T02:59:56;100163.22;;;1.34;98.52
39891;BME280;25564;53.312;9.790;2023-03-15T03:02:27;100177.25;;;1.42;98.54
39891;BME280;25564;53.312;9.790;2023-03-15T03:04:58;100149.06;;;1.16;97.95
39891;BME280;25564;53.312;9.790;2023-03-15T03:07:30;100168.25;;;1.18;98.12
39891;BME280;25564;53.312;9.790;2023-03-15T03:10:02;100187.34;;;1.11;98.59
39891;BME280;25564;53.312;9.790;2023-03-15T03:12:34;100189.81;;;0.96;98.05
39891;BME280;25564;53.312;9.790;2023-03-15T03:15:06;100183.47;;;0.79;98.71
39891;BME280;25564;53.312;9.790;2023-03-15T03:17:37;100208.66;;;0.74;98.34
39891;BME280;25564;53.312;9.790;2023-03-15T03:20:23;100197.13;;;0.59;99.01
39891;BME280;25564;53.312;9.790;2023-03-15T03:22:54;100181.34;;;0.50;98.38
39891;BME280;25564;53.312;9.790;2023-03-15T03:25:26;100218.31;;;0.81;98.36
39891;BME280;25564;53.312;9.790;2023-03-15T03:27:58;100217.53;;;0.86;98.94
39891;BME280;25564;53.312;9.790;2023-03-15T03:30:29;100238.66;;;1.03;98.91
39891;BME280;25564;53.312;9.790;2023-03-15T03:33:01;100241.28;;;1.06;99.25
39891;BME280;25564;53.312;9.790;2023-03-15T03:35:32;100229.06;;;1.05;98.68
39891;BME280;25564;53.312;9.790;2023-03-15T03:38:04;100221.31;;;1.13;99.00
39891;BME280;25564;53.312;9.790;2023-03-15T03:40:36;100245.06;;;1.29;99.25
39891;BME280;25564;53.312;9.790;2023-03-15T03:43:08;100247.66;;;1.28;99.25
39891;BME280;25564;53.312;9.790;2023-03-15T03:45:39;100253.78;;;1.31;98.97
39891;BME280;25564;53.312;9.790;2023-03-15T03:48:11;100240.63;;;1.22;99.37
39891;BME280;25564;53.312;9.790;2023-03-15T03:50:42;100275.59;;;1.34;98.93
39891;BME280;25564;53.312;9.790;2023-03-15T03:53:13;100270.34;;;1.30;99.36
39891;BME280;25564;53.312;9.790;2023-03-15T03:55:45;100269.47;;;1.31;99.54
39891;BME280;25564;53.312;9.790;2023-03-15T03:58:16;100269.47;;;1.31;99.17
39891;BME280;25564;53.312;9.790;2023-03-15T04:00:50;100302.78;;;1.48;99.59
39891;BME280;25564;53.312;9.790;2023-03-15T04:03:24;100308.06;;;1.51;99.63
39891;BME280;25564;53.312;9.790;2023-03-15T04:06:00;100290.47;;;1.38;99.25
39891;BME280;25564;53.312;9.790;2023-03-15T04:08:31;100319.47;;;1.57;99.15
39891;BME280;25564;53.312;9.790;2023-03-15T04:11:03;100292.25;;;1.42;99.58
39891;BME280;25564;53.312;9.790;2023-03-15T04:13:35;100328.28;;;1.64;99.25
39891;BME280;25564;53.312;9.790;2023-03-15T04:16:06;100298.47;;;1.51;98.92
39891;BME280;25564;53.312;9.790;2023-03-15T04:18:38;100273.03;;;1.37;99.08
39891;BME280;25564;53.312;9.790;2023-03-15T04:21:10;100294.97;;;1.49;98.70
39891;BME280;25564;53.312;9.790;2023-03-15T04:23:42;100312.47;;;1.55;99.22
39891;BME280;25564;53.312;9.790;2023-03-15T04:26:13;100332.72;;;1.71;99.39
39891;BME280;25564;53.312;9.790;2023-03-15T04:28:44;100343.19;;;1.71;99.18
39891;BME280;25564;53.312;9.790;2023-03-15T04:31:16;100350.22;;;1.75;98.61
39891;BME280;25564;53.312;9.790;2023-03-15T04:33:47;100339.66;;;1.69;99.02
39891;BME280;25564;53.312;9.790;2023-03-15T04:36:20;100331.75;;;1.63;99.50
39891;BME280;25564;53.312;9.790;2023-03-15T04:38:51;100359.75;;;1.72;98.94
39891;BME280;25564;53.312;9.790;2023-03-15T04:41:34;100353.53;;;1.62;99.00
39891;BME280;25564;53.312;9.790;2023-03-15T04:44:06;100364.88;;;1.62;99.20
39891;BME280;25564;53.312;9.790;2023-03-15T04:46:37;100343.72;;;1.44;99.10
39891;BME280;25564;53.312;9.790;2023-03-15T04:49:08;100362.94;;;1.48;98.88
39891;BME280;25564;53.312;9.790;2023-03-15T04:51:40;100346.06;;;1.24;98.68
39891;BME280;25564;53.312;9.790;2023-03-15T04:54:11;100344.94;;;1.09;99.15
39891;BME280;25564;53.312;9.790;2023-03-15T04:56:43;100362.38;;;1.08;99.11
39891;BME280;25564;53.312;9.790;2023-03-15T04:59:14;100363.91;;;0.92;99.21
39891;BME280;25564;53.312;9.790;2023-03-15T05:01:45;100369.97;;;0.91;99.10
39891;BME280;25564;53.312;9.790;2023-03-15T05:04:17;100373.38;;;0.86;98.79
39891;BME280;25564;53.312;9.790;2023-03-15T05:06:48;100376.88;;;0.88;98.63
39891;BME280;25564;53.312;9.790;2023-03-15T05:09:19;100377.75;;;0.88;98.98
39891;BME280;25564;53.312;9.790;2023-03-15T05:11:52;100392.81;;;1.06;99.57
39891;BME280;25564;53.312;9.790;2023-03-15T05:14:23;100394.66;;;1.13;99.32
39891;BME280;25564;53.312;9.790;2023-03-15T05:16:54;100385.09;;;1.14;99.19
39891;BME280;25564;53.312;9.790;2023-03-15T05:19:28;100387.81;;;1.21;99.17
39891;BME280;25564;53.312;9.790;2023-03-15T05:22:01;100384.34;;;1.21;99.85
39891;BME280;25564;53.312;9.790;2023-03-15T05:24:33;100421.22;;;1.41;99.21
39891;BME280;25564;53.312;9.790;2023-03-15T05:27:05;100420.38;;;1.43;99.41
39891;BME280;25564;53.312;9.790;2023-03-15T05:29:36;100420.44;;;1.46;99.52
39891;BME280;25564;53.312;9.790;2023-03-15T05:32:07;100423.06;;;1.48;99.73
39891;BME280;25564;53.312;9.790;2023-03-15T05:34:39;100425.66;;;1.46;99.91
39891;BME280;25564;53.312;9.790;2023-03-15T05:37:10;100429.94;;;1.41;99.78
39891;BME280;25564;53.312;9.790;2023-03-15T05:39:42;100403.63;;;1.30;99.51
39891;BME280;25564;53.312;9.790;2023-03-15T05:42:14;100428.38;;;1.54;99.70
39891;BME280;25564;53.312;9.790;2023-03-15T05:44:46;100409.13;;;1.47;99.85
39891;BME280;25564;53.312;9.790;2023-03-15T05:47:19;100430.19;;;1.58;99.35
39891;BME280;25564;53.312;9.790;2023-03-15T05:49:50;100444.06;;;1.54;99.22
39891;BME280;25564;53.312;9.790;2023-03-15T05:52:22;100443.94;;;1.45;99.47
39891;BME280;25564;53.312;9.790;2023-03-15T05:54:54;100433.25;;;1.29;99.49
39891;BME280;25564;53.312;9.790;2023-03-15T05:57:25;100469.22;;;1.46;100.00
39891;BME280;25564;53.312;9.790;2023-03-15T05:59:56;100473.66;;;1.50;99.69
39891;BME280;25564;53.312;9.790;2023-03-15T06:02:28;100472.81;;;1.52;99.94
39891;BME280;25564;53.312;9.790;2023-03-15T06:04:59;100486.84;;;1.57;99.76
39891;BME280;25564;53.312;9.790;2023-03-15T06:07:30;100488.66;;;1.63;99.76
39891;BME280;25564;53.312;9.790;2023-03-15T06:10:02;100481.69;;;1.63;99.06
39891;BME280;25564;53.312;9.790;2023-03-15T06:12:34;100500.22;;;1.77;99.63
39891;BME280;25564;53.312;9.790;2023-03-15T06:15:05;100486.16;;;1.71;99.42
39891;BME280;25564;53.312;9.790;2023-03-15T06:17:37;100484.41;;;1.71;99.39
39891;BME280;25564;53.312;9.790;2023-03-15T06:20:09;100483.75;;;1.86;99.62
39891;BME280;25564;53.312;9.790;2023-03-15T06:22:40;100497.81;;;1.94;99.57
39891;BME280;25564;53.312;9.790;2023-03-15T06:25:11;100516.25;;;2.02;98.65
39891;BME280;25564;53.312;9.790;2023-03-15T06:27:43;100518.81;;;1.99;99.29
39891;BME280;25564;53.312;9.790;2023-03-15T06:30:14;100523.22;;;2.01;99.29
39891;BME280;25564;53.312;9.790;2023-03-15T06:32:47;100524.16;;;2.05;99.64
39891;BME280;25564;53.312;9.790;2023-03-15T06:35:19;100523.31;;;2.10;99.28
39891;BME280;25564;53.312;9.790;2023-03-15T06:37:51;100530.44;;;2.22;99.50
39891;BME280;25564;53.312;9.790;2023-03-15T06:40:23;100538.38;;;2.26;99.82
39891;BME280;25564;53.312;9.790;2023-03-15T06:42:54;100530.59;;;2.33;99.13
39891;BME280;25564;53.312;9.790;2023-03-15T06:45:25;100517.44;;;2.28;99.18
39891;BME280;25564;53.312;9.790;2023-03-15T06:47:57;100533.28;;;2.37;98.58
39891;BME280;25564;53.312;9.790;2023-03-15T06:50:28;100522.69;;;2.28;98.45
39891;BME280;25564;53.312;9.790;2023-03-15T06:53:16;100537.63;;;2.37;98.65
39891;BME280;25564;53.312;9.790;2023-03-15T06:55:48;100574.47;;;2.50;99.23
39891;BME280;25564;53.312;9.790;2023-03-15T06:58:20;100544.69;;;2.42;98.77
39891;BME280;25564;53.312;9.790;2023-03-15T07:00:52;100527.13;;;2.35;98.49
39891;BME280;25564;53.312;9.790;2023-03-15T07:03:23;100571.22;;;2.70;99.38
39891;BME280;25564;53.312;9.790;2023-03-15T07:05:55;100566.13;;;2.83;99.05
39891;BME280;25564;53.312;9.790;2023-03-15T07:08:26;100564.59;;;3.02;98.96
39891;BME280;25564;53.312;9.790;2023-03-15T07:10:57;100552.50;;;3.18;99.36
39891;BME280;25564;53.312;9.790;2023-03-15T07:13:29;100544.00;;;3.45;99.08
39891;BME280;25564;53.312;9.790;2023-03-15T07:16:00;100567.97;;;3.90;98.89
39891;BME280;25564;53.312;9.790;2023-03-15T07:18:32;100565.50;;;4.21;99.79
39891;BME280;25564;53.312;9.790;2023-03-15T07:21:04;100574.38;;;4.44;98.85
39891;BME280;25564;53.312;9.790;2023-03-15T07:23:37;100563.94;;;4.59;99.24
39891;BME280;25564;53.312;9.790;2023-03-15T07:26:08;100585.09;;;4.91;99.08
39891;BME280;25564;53.312;9.790;2023-03-15T07:28:40;100592.19;;;5.17;99.78
39891;BME280;25564;53.312;9.790;2023-03-15T07:31:12;100608.84;;;5.25;99.28
39891;BME280;25564;53.312;9.790;2023-03-15T07:33:44;100608.69;;;4.73;98.82
39891;BME280;25564;53.312;9.790;2023-03-15T07:36:15;100647.03;;;4.38;98.22
39891;BME280;25564;53.312;9.790;2023-03-15T07:38:46;100659.03;;;3.99;98.37
39891;BME280;25564;53.312;9.790;2023-03-15T07:41:17;100663.16;;;3.71;98.31
39891;BME280;25564;53.312;9.790;2023-03-15T07:43:49;100664.53;;;3.33;98.55
39891;BME280;25564;53.312;9.790;2023-03-15T07:46:20;100648.47;;;3.01;97.93
39891;BME280;25564;53.312;9.790;2023-03-15T07:48:51;100650.84;;;2.82;97.85
39891;BME280;25564;53.312;9.790;2023-03-15T07:51:23;100660.41;;;2.79;97.69
39891;BME280;25564;53.312;9.790;2023-03-15T07:53:54;100663.00;;;2.76;97.99
39891;BME280;25564;53.312;9.790;2023-03-15T07:56:25;100669.06;;;2.72;97.55
39891;BME280;25564;53.312;9.790;2023-03-15T07:58:57;100657.66;;;2.68;97.74
39891;BME280;25564;53.312;9.790;2023-03-15T08:01:28;100676.22;;;2.86;97.71
39891;BME280;25564;53.312;9.790;2023-03-15T08:03:59;100670.03;;;2.80;98.58
39891;BME280;25564;53.312;9.790;2023-03-15T08:06:31;100667.38;;;2.77;98.17
39891;BME280;25564;53.312;9.790;2023-03-15T08:09:02;100671.78;;;2.79;98.90
39891;BME280;25564;53.312;9.790;2023-03-15T08:11:36;100691.19;;;2.93;99.53
39891;BME280;25564;53.312;9.790;2023-03-15T08:14:07;100693.16;;;3.11;100.00
39891;BME280;25564;53.312;9.790;2023-03-15T08:16:38;100703.94;;;3.39;100.00
39891;BME280;25564;53.312;9.790;2023-03-15T08:19:10;100701.50;;;3.57;100.00
39891;BME280;25564;53.312;9.790;2023-03-15T08:21:41;100689.41;;;3.71;100.00
39891;BME280;25564;53.312;9.790;2023-03-15T08:24:15;100709.81;;;4.01;100.00
39891;BME280;25564;53.312;9.790;2023-03-15T08:26:47;100689.72;;;4.05;100.00
39891;BME280;25564;53.312;9.790;2023-03-15T08:29:18;100717.84;;;4.21;100.00
39891;BME280;25564;53.312;9.790;2023-03-15T08:31:49;100711.72;;;4.23;100.00
39891;BME280;25564;53.312;9.790;2023-03-15T08:34:21;100718.97;;;4.56;100.00
39891;BME280;25564;53.312;9.790;2023-03-15T08:36:52;100720.06;;;4.89;100.00
39891;BME280;25564;53.312;9.790;2023-03-15T08:39:24;100714.94;;;5.25;100.00
39891;BME280;25564;53.312;9.790;2023-03-15T08:41:55;100722.97;;;5.64;100.00
39891;BME280;25564;53.312;9.790;2023-03-15T08:44:26;100729.13;;;5.72;100.00
39891;BME280;25564;53.312;9.790;2023-03-15T08:46:58;100729.09;;;5.55;99.97
39891;BME280;25564;53.312;9.790;2023-03-15T08:49:30;100707.75;;;4.83;99.47
39891;BME280;25564;53.312;9.790;2023-03-15T08:52:01;100726.03;;;4.60;99.02
39891;BME280;25564;53.312;9.790;2023-03-15T08:54:32;100718.97;;;4.55;100.00
39891;BME280;25564;53.312;9.790;2023-03-15T08:57:04;100713.75;;;4.59;100.00
39891;BME280;25564;53.312;9.790;2023-03-15T08:59:35;100709.34;;;4.55;100.00
39891;BME280;25564;53.312;9.790;2023-03-15T09:02:08;100725.97;;;4.53;100.00
39891;BME280;25564;53.312;9.790;2023-03-15T09:04:42;100716.16;;;4.29;100.00
39891;BME280;25564;53.312;9.790;2023-03-15T09:07:14;100739.88;;;4.40;100.00
39891;BME280;25564;53.312;9.790;2023-03-15T09:09:46;100738.25;;;4.57;100.00
39891;BME280;25564;53.312;9.790;2023-03-15T09:12:19;100727.00;;;4.79;100.00
39891;BME280;25564;53.312;9.790;2023-03-15T09:14:51;100746.53;;;5.19;100.00
39891;BME280;25564;53.312;9.790;2023-03-15T09:17:22;100738.69;;;5.41;100.00
39891;BME280;25564;53.312;9.790;2023-03-15T09:19:53;100758.09;;;5.75;100.00
39891;BME280;25564;53.312;9.790;2023-03-15T09:22:24;100747.66;;;6.10;100.00
39891;BME280;25564;53.312;9.790;2023-03-15T09:25:09;100764.34;;;6.51;100.00
39891;BME280;25564;53.312;9.790;2023-03-15T09:27:41;100764.34;;;6.56;100.00
39891;BME280;25564;53.312;9.790;2023-03-15T09:30:12;100769.63;;;6.38;100.00
39891;BME280;25564;53.312;9.790;2023-03-15T09:32:44;100750.31;;;6.07;100.00
39891;BME280;25564;53.312;9.790;2023-03-15T09:35:18;100773.16;;;6.14;100.00
39891;BME280;25564;53.312;9.790;2023-03-15T09:37:50;100779.28;;;6.30;100.00
39891;BME280;25564;53.312;9.790;2023-03-15T09:40:29;100771.38;;;6.25;100.00
39891;BME280;25564;53.312;9.790;2023-03-15T09:43:14;100767.84;;;6.26;100.00
39891;BME280;25564;53.312;9.790;2023-03-15T09:48:25;100775.78;;;6.11;98.01
39891;BME280;25564;53.312;9.790;2023-03-15T09:54:02;100779.31;;;6.19;99.47
39891;BME280;25564;53.312;9.790;2023-03-15T09:57:09;100759.09;;;6.21;99.64
39891;BME280;25564;53.312;9.790;2023-03-15T09:59:43;100763.47;;;6.43;99.94
39891;BME280;25564;53.312;9.790;2023-03-15T10:02:22;100785.44;;;6.73;100.00
39891;BME280;25564;53.312;9.790;2023-03-15T10:05:02;100790.69;;;6.99;100.00
39891;BME280;25564;53.312;9.790;2023-03-15T10:07:36;100789.81;;;6.95;97.77
39891;BME280;25564;53.312;9.790;2023-03-15T10:10:16;100782.75;;;7.06;99.48
39891;BME280;25564;53.312;9.790;2023-03-15T10:13:22;100784.31;;;7.56;99.89
39891;BME280;25564;53.312;9.790;2023-03-15T10:18:43;100788.78;;;7.42;96.38
39891;BME280;25564;53.312;9.790;2023-03-15T10:21:41;100795.94;;;7.14;96.07
39891;BME280;25564;53.312;9.790;2023-03-15T10:24:23;100807.41;;;6.70;92.53
39891;BME280;25564;53.312;9.790;2023-03-15T10:26:58;100823.22;;;6.14;93.34
39891;BME280;25564;53.312;9.790;2023-03-15T10:29:35;100837.78;;;5.37;92.38
39891;BME280;25564;53.312;9.790;2023-03-15T10:32:14;100840.84;;;4.68;92.75
39891;BME280;25564;53.312;9.790;2023-03-15T10:34:51;100813.03;;;3.97;93.80
39891;BME280;25564;53.312;9.790;2023-03-15T10:37:25;100821.16;;;3.44;94.25
39891;BME280;25564;53.312;9.790;2023-03-15T10:39:57;100828.59;;;3.12;95.85
39891;BME280;25564;53.312;9.790;2023-03-15T10:42:31;100842.66;;;3.17;97.08
39891;BME280;25564;53.312;9.790;2023-03-15T10:45:23;100842.16;;;3.44;99.48
39891;BME280;25564;53.312;9.790;2023-03-15T10:47:55;100842.81;;;3.98;100.00
39891;BME280;25564;53.312;9.790;2023-03-15T10:50:31;100811.41;;;4.08;100.00
39891;BME280;25564;53.312;9.790;2023-03-15T10:53:09;100836.19;;;4.38;100.00
39891;BME280;25564;53.312;9.790;2023-03-15T10:55:42;100831.09;;;4.56;100.00
39891;BME280;25564;53.312;9.790;2023-03-15T10:58:23;100832.97;;;4.71;100.00
39891;BME280;25564;53.312;9.790;2023-03-15T11:01:06;100804.94;;;4.70;100.00
39891;BME280;25564;53.312;9.790;2023-03-15T11:03:40;100819.19;;;5.02;100.00
39891;BME280;25564;53.312;9.790;2023-03-15T11:06:20;100822.78;;;5.22;100.00
39891;BME280;25564;53.312;9.790;2023-03-15T11:08:52;100830.72;;;5.27;100.00
39891;BME280;25564;53.312;9.790;2023-03-15T11:11:23;100822.75;;;5.10;100.00
39891;BME280;25564;53.312;9.790;2023-03-15T11:13:58;100845.56;;;5.11;100.00
39891;BME280;25564;53.312;9.790;2023-03-15T11:16:34;100849.94;;;5.09;99.95
39891;BME280;25564;53.312;9.790;2023-03-15T11:19:12;100856.13;;;5.22;100.00
39891;BME280;25564;53.312;9.790;2023-03-15T11:21:47;100852.72;;;5.43;100.00
39891;BME280;25564;53.312;9.790;2023-03-15T11:24:26;100841.34;;;5.47;100.00
39891;BME280;25564;53.312;9.790;2023-03-15T11:27:00;100867.75;;;5.62;100.00
39891;BME280;25564;53.312;9.790;2023-03-15T11:29:33;100869.53;;;5.65;100.00
39891;BME280;25564;53.312;9.790;2023-03-15T11:32:18;100856.28;;;5.48;99.48
39891;BME280;25564;53.312;9.790;2023-03-15T11:35:01;100865.94;;;5.52;100.00
39891;BME280;25564;53.312;9.790;2023-03-15T11:37:53;100850.16;;;5.52;100.00
39891;BME280;25564;53.312;9.790;2023-03-15T11:40:42;100868.84;;;6.01;100.00
39891;BME280;25564;53.312;9.790;2023-03-15T11:49:03;100868.94;;;6.91;100.00
39891;BME280;25564;53.312;9.790;2023-03-15T11:51:40;100848.69;;;7.20;100.00
39891;BME280;25564;53.312;9.790;2023-03-15T11:54:16;100869.75;;;7.43;100.00
39891;BME280;25564;53.312;9.790;2023-03-15T12:02:51;100855.72;;;7.27;100.00
39891;BME280;25564;53.312;9.790;2023-03-15T12:13:52;100899.72;;;7.02;100.00
39891;BME280;25564;53.312;9.790;2023-03-15T12:16:40;100886.53;;;6.73;100.00
39891;BME280;25564;53.312;9.790;2023-03-15T12:19:17;100907.59;;;6.55;100.00
39891;BME280;25564;53.312;9.790;2023-03-15T12:21:55;100919.84;;;6.35;100.00
39891;BME280;25564;53.312;9.790;2023-03-15T12:24:33;100905.56;;;5.78;97.98
39891;BME280;25564;53.312;9.790;2023-03-15T12:27:17;100928.09;;;5.30;93.33
39891;BME280;25564;53.312;9.790;2023-03-15T12:29:57;100925.16;;;4.89;96.58
39891;BME280;25564;53.312;9.790;2023-03-15T12:32:42;100908.19;;;4.56;94.58
39891;BME280;25564;53.312;9.790;2023-03-15T12:35:19;100948.56;;;4.63;97.08
39891;BME280;25564;53.312;9.790;2023-03-15T12:37:52;100921.34;;;4.58;97.44
39891;BME280;25564;53.312;9.790;2023-03-15T12:43:00;100938.88;;;4.57;99.85
39891;BME280;25564;53.312;9.790;2023-03-15T12:45:34;100931.81;;;4.53;100.00
39891;BME280;25564;53.312;9.790;2023-03-15T12:53:20;100933.84;;;4.82;100.00
39891;BME280;25564;53.312;9.790;2023-03-15T12:55:53;100932.22;;;4.96;100.00
39891;BME280;25564;53.312;9.790;2023-03-15T12:58:39;100919.25;;;5.16;100.00
39891;BME280;25564;53.312;9.790;2023-03-15T13:01:13;100918.38;;;5.21;100.00
39891;BME280;25564;53.312;9.790;2023-03-15T13:03:46;100924.63;;;5.37;100.00
39891;BME280;25564;53.312;9.790;2023-03-15T13:06:41;100906.22;;;5.40;100.00
39891;BME280;25564;53.312;9.790;2023-03-15T13:12:13;100922.19;;;5.68;100.00
39891;BME280;25564;53.312;9.790;2023-03-15T13:14:58;100923.97;;;5.72;100.00
39891;BME280;25564;53.312;9.790;2023-03-15T13:17:43;100932.81;;;5.86;100.00
39891;BME280;25564;53.312;9.790;2023-03-15T13:20:39;100930.31;;;6.03;100.00
39891;BME280;25564;53.312;9.790;2023-03-15T13:23:15;100933.81;;;6.05;100.00
39891;BME280;25564;53.312;9.790;2023-03-15T13:28:35;100920.72;;;6.20;100.00
39891;BME280;25564;53.312;9.790;2023-03-15T13:31:19;100928.63;;;6.28;97.86
39891;BME280;25564;53.312;9.790;2023-03-15T13:33:52;100930.41;;;6.39;99.72
39891;BME280;25564;53.312;9.790;2023-03-15T13:36:45;100936.59;;;6.50;97.09
39891;BME280;25564;53.312;9.790;2023-03-15T13:39:21;100917.25;;;6.54;97.19
39891;BME280;25564;53.312;9.790;2023-03-15T13:42:02;100919.03;;;6.68;97.96
39891;BME280;25564;53.312;9.790;2023-03-15T13:44:33;100922.56;;;6.65;94.40
39891;BME280;25564;53.312;9.790;2023-03-15T13:47:05;100920.78;;;6.56;91.31
39891;BME280;25564;53.312;9.790;2023-03-15T13:49:36;100904.91;;;6.29;92.89
39891;BME280;25564;53.312;9.790;2023-03-15T13:52:09;100927.78;;;6.48;93.88
39891;BME280;25564;53.312;9.790;2023-03-15T13:54:44;100928.69;;;6.55;94.08
39891;BME280;25564;53.312;9.790;2023-03-15T13:57:18;100907.63;;;6.75;97.14
39891;BME280;25564;53.312;9.790;2023-03-15T13:59:56;100919.97;;;7.11;98.38
39891;BME280;25564;53.312;9.790;2023-03-15T14:02:45;100929.63;;;7.21;89.39
39891;BME280;25564;53.312;9.790;2023-03-15T14:05:20;100911.16;;;7.07;91.07
39891;BME280;25564;53.312;9.790;2023-03-15T14:08:06;100934.88;;;7.29;95.71
39891;BME280;25564;53.312;9.790;2023-03-15T14:11:39;100930.47;;;7.32;88.78
39891;BME280;25564;53.312;9.790;2023-03-15T14:13:53;100933.09;;;7.35;93.84
39891;BME280;25564;53.312;9.790;2023-03-15T14:16:39;100941.06;;;7.28;93.40
39891;BME280;25564;53.312;9.790;2023-03-15T14:19:33;100941.94;;;7.13;92.33